Time;durP1;ratioP1;P1;durP2;ratioP2;P2;SDS_P1;SDS_P2;PMS_P1;PMS_P2;Temp;Humidity;BMP_temperature;BMP_pressure;BME280_temperature;BME280_humidity;BME280_pressure;Samples;Min_cycle;Max_cycle;Signal;HPM_P1;HPM_P2
2021/12/09 00:02:01;;;;;;;117.20;69.25;;;;;;;-1.82;90.05;97171.41;10292738;28;20061;-59
2021/12/09 00:07:01;;;;;;;115.00;65.20;;;;;;;-2.04;89.06;97134.13;10296969;28;20076;-59
2021/12/09 00:12:00;;;;;;;99.80;54.90;;;;;;;-1.85;89.87;97179.78;10296043;28;20072;-59
2021/12/09 00:17:08;;;;;;;122.90;67.72;;;;;;;-1.95;90.05;97158.22;10296373;28;20066;-59
2021/12/09 00:22:11;;;;;;;111.00;59.75;;;;;;;-1.92;89.01;97172.72;10296409;28;20080;-59
2021/12/09 00:27:10;;;;;;;95.15;50.15;;;;;;;-2.04;89.32;97157.88;10296036;28;20500;-59
2021/12/09 00:32:09;;;;;;;88.55;48.65;;;;;;;-2.03;89.13;97176.53;10295449;28;20545;-59
2021/12/09 00:37:25;;;;;;;80.00;48.28;;;;;;;-2.02;89.28;97175.75;10296121;28;20479;-59
2021/12/09 00:42:25;;;;;;;118.47;66.15;;;;;;;-2.09;88.77;97184.81;10291432;28;20061;-59
2021/12/09 00:47:25;;;;;;;105.57;55.45;;;;;;;-2.17;89.20;97156.56;10293653;28;20076;-59
2021/12/09 00:52:25;;;;;;;103.60;59.92;;;;;;;-2.05;88.83;97153.63;10295252;28;20078;-59
2021/12/09 00:57:24;;;;;;;96.22;49.78;;;;;;;-2.13;89.20;97144.81;10295127;28;20843;-59
2021/12/09 01:02:23;;;;;;;71.68;38.90;;;;;;;-2.09;88.95;97144.13;10294218;28;20068;-58
2021/12/09 01:07:22;;;;;;;54.50;27.98;;;;;;;-2.58;89.82;97046.53;10294779;28;20077;-59
2021/12/09 01:12:21;;;;;;;61.30;31.92;;;;;;;-2.00;89.72;97126.69;10289001;28;20033;-59
2021/12/09 01:17:20;;;;;;;67.40;34.50;;;;;;;-1.88;89.72;97128.81;10294087;28;20495;-59
2021/12/09 01:22:20;;;;;;;53.30;29.20;;;;;;;-1.83;88.92;97124.75;10293955;28;20448;-59
2021/12/09 01:27:19;;;;;;;46.83;24.60;;;;;;;-1.77;88.32;97111.41;10293826;28;20529;-59
2021/12/09 01:32:25;;;;;;;43.67;25.42;;;;;;;-1.89;88.20;97111.81;10292273;28;20139;-61
2021/12/09 01:37:24;;;;;;;42.25;23.20;;;;;;;-1.91;89.48;97103.28;10294223;28;20066;-59
2021/12/09 01:42:23;;;;;;;36.97;19.52;;;;;;;-1.66;89.97;97125.38;10288191;28;20563;-59
2021/12/09 01:47:22;;;;;;;38.92;21.33;;;;;;;-1.54;89.49;97137.66;10293018;28;20026;-59
2021/12/09 01:52:21;;;;;;;31.13;15.70;;;;;;;-1.62;88.88;97122.13;10293435;28;20127;-59
2021/12/09 01:57:20;;;;;;;29.05;15.32;;;;;;;-1.65;88.13;97127.97;10292477;28;20065;-59
2021/12/09 02:02:20;;;;;;;27.27;14.27;;;;;;;-1.69;87.87;97125.28;10292480;28;20030;-59
2021/12/09 02:07:19;;;;;;;24.92;13.20;;;;;;;-1.73;87.88;97115.78;10293022;28;20073;-59
2021/12/09 02:12:18;;;;;;;24.50;14.15;;;;;;;-1.68;87.94;97112.63;10287325;28;20068;-59
2021/12/09 02:17:17;;;;;;;26.88;13.93;;;;;;;-1.64;87.85;97124.63;10292317;28;20042;-59
2021/12/09 02:22:16;;;;;;;30.70;15.32;;;;;;;-2.13;88.55;97051.63;10292636;28;20036;-59
2021/12/09 02:27:15;;;;;;;30.50;16.13;;;;;;;-1.61;88.44;97117.91;10291237;28;20072;-59
2021/12/09 02:32:14;;;;;;;25.15;13.45;;;;;;;-1.63;88.27;97120.41;10292413;28;20037;-59
2021/12/09 02:37:14;;;;;;;22.63;12.05;;;;;;;-1.62;87.56;97101.78;10291586;28;20034;-59
2021/12/09 02:42:13;;;;;;;24.92;13.07;;;;;;;-2.25;88.01;97000.34;10286772;28;20058;-59
2021/12/09 02:47:12;;;;;;;27.38;14.15;;;;;;;-1.62;87.36;97123.81;10290157;28;20065;-59
2021/12/09 02:52:11;;;;;;;26.75;13.68;;;;;;;-1.62;87.86;97116.19;10290656;28;20077;-59
2021/12/09 02:57:10;;;;;;;31.10;17.80;;;;;;;-1.70;87.72;97119.31;10290455;28;20042;-59
2021/12/09 03:02:11;;;;;;;38.45;21.85;;;;;;;-1.90;87.59;97113.50;10290520;28;20065;-59
2021/12/09 03:07:12;;;;;;;50.28;24.20;;;;;;;-1.82;87.94;97129.06;10290468;28;20064;-59
2021/12/09 03:12:13;;;;;;;43.95;22.60;;;;;;;-2.17;87.74;97071.78;10286090;28;20064;-59
2021/12/09 03:17:12;;;;;;;54.03;29.63;;;;;;;-1.84;88.24;97145.94;10289773;28;20344;-59
2021/12/09 03:22:11;;;;;;;;;;;;;;;-1.84;87.88;97153.56;10290259;28;20061;-59
2021/12/09 03:27:11;;;;;;;44.87;22.93;;;;;;;-1.78;88.06;97138.50;10290878;28;19959;-59
2021/12/09 03:32:13;;;;;;;15.50;8.02;;;;;;;-1.74;88.69;97124.25;10290190;28;20341;-59
2021/12/09 03:37:19;;;;;;;26.40;13.43;;;;;;;-1.36;88.64;97107.78;10294597;28;20065;-59
2021/12/09 03:42:23;;;;;;;32.58;17.38;;;;;;;-0.84;87.42;97106.16;10297652;28;20522;-59
2021/12/09 03:47:24;;;;;;;32.53;18.25;;;;;;;-0.88;86.32;97100.09;10293491;28;20088;-59
2021/12/09 03:52:26;;;;;;;24.10;13.50;;;;;;;-1.22;85.80;97126.09;10297465;28;20081;-59
2021/12/09 03:57:25;;;;;;;26.13;15.27;;;;;;;-1.55;85.83;97133.41;10297963;28;20117;-59
2021/12/09 04:02:24;;;;;;;;;;;;;;;-1.69;85.52;97125.28;10297511;28;20076;-59
2021/12/09 04:07:23;;;;;;;44.30;26.25;;;;;;;-1.80;86.47;97136.72;10297405;28;19916;-59
2021/12/09 04:12:22;;;;;;;32.70;18.50;;;;;;;-1.76;86.11;97118.22;10297242;28;20021;-59
2021/12/09 04:17:21;;;;;;;26.85;15.32;;;;;;;-1.64;86.20;97144.97;10291796;28;20057;-59
2021/12/09 04:22:20;;;;;;;33.35;19.08;;;;;;;-1.65;86.54;97142.38;10296335;28;20041;-59
2021/12/09 04:27:19;;;;;;;;;;;;;;;-1.65;86.19;97153.44;10297088;28;20064;-59
2021/12/09 04:32:18;;;;;;;42.85;19.98;;;;;;;-1.64;86.35;97155.13;10296052;28;19913;-59
2021/12/09 04:37:18;;;;;;;40.70;22.67;;;;;;;-1.71;85.95;97153.19;10296132;28;20061;-59
2021/12/09 04:42:17;;;;;;;57.25;33.83;;;;;;;-1.72;86.99;97169.28;10295818;28;20479;-59
2021/12/09 04:47:16;;;;;;;;;;;;;;;-1.64;86.87;97170.41;10291188;28;20057;-59
2021/12/09 04:52:15;;;;;;;69.47;38.22;;;;;;;-1.68;86.24;97158.41;10296192;28;20036;-59
2021/12/09 04:57:14;;;;;;;103.85;53.38;;;;;;;-1.86;87.10;97142.47;10295178;28;20066;-59
2021/12/09 05:02:23;;;;;;;100.75;54.53;;;;;;;-1.87;87.89;97168.69;10287545;28;20074;-59
2021/12/09 05:07:23;;;;;;;71.18;38.85;;;;;;;-1.80;87.26;97151.97;10288309;28;20451;-60
2021/12/09 05:12:22;;;;;;;92.47;49.55;;;;;;;-2.25;87.04;97086.75;10293269;28;20730;-59
2021/12/09 05:17:22;;;;;;;81.15;45.72;;;;;;;-1.75;86.78;97138.66;10288179;28;20040;-59
2021/12/09 05:22:20;;;;;;;107.82;60.35;;;;;;;-1.70;86.31;97154.94;10292861;28;20054;-59
2021/12/09 05:27:20;;;;;;;105.95;56.67;;;;;;;-1.86;87.10;97157.72;10292118;28;20042;-59
2021/12/09 05:32:20;;;;;;;83.65;50.53;;;;;;;-1.85;87.74;97151.81;10291783;28;20072;-59
2021/12/09 05:37:22;;;;;;;106.45;60.40;;;;;;;-1.77;87.25;97147.91;10292641;28;20058;-59
2021/12/09 05:42:22;;;;;;;120.72;73.63;;;;;;;-1.79;86.95;97139.34;10289534;28;20125;-59
2021/12/09 05:47:22;;;;;;;98.57;60.13;;;;;;;-1.80;87.48;97140.13;10282169;28;20118;-59
2021/12/09 05:52:21;;;;;;;84.93;50.70;;;;;;;-1.69;88.01;97164.28;10291254;28;20076;-59
2021/12/09 05:57:20;;;;;;;55.90;34.28;;;;;;;-1.50;87.31;97147.16;10287283;28;20030;-59
2021/12/09 06:02:19;;;;;;;32.63;22.08;;;;;;;-1.38;87.85;97114.50;10290302;28;20138;-59
2021/12/09 06:07:18;;;;;;;16.63;9.70;;;;;;;-1.17;87.58;97049.88;10291537;28;20168;-59
2021/12/09 06:12:19;;;;;;;11.93;5.65;;;;;;;0.11;85.27;97121.00;10290556;28;20133;-59
2021/12/09 06:17:18;;;;;;;6.97;3.72;;;;;;;0.90;82.97;97118.13;10289100;28;20060;-60
2021/12/09 06:22:18;;;;;;;7.32;3.92;;;;;;;1.55;79.14;97112.06;10280953;28;20117;-60
2021/12/09 06:27:17;;;;;;;7.07;3.88;;;;;;;2.04;78.83;97130.25;10291032;28;20064;-60
2021/12/09 06:32:16;;;;;;;7.97;4.85;;;;;;;2.40;75.94;97119.94;10289133;28;20034;-60
2021/12/09 06:37:15;;;;;;;9.80;5.50;;;;;;;2.58;72.35;97112.66;10288812;28;20046;-60
2021/12/09 06:42:16;;;;;;;10.55;5.82;;;;;;;2.79;73.24;97111.31;10287198;28;20470;-60
2021/12/09 06:47:15;;;;;;;11.25;6.85;;;;;;;2.96;70.70;97109.94;10289704;28;20057;-60
2021/12/09 06:52:14;;;;;;;9.55;5.10;;;;;;;3.09;71.18;97117.84;10278241;28;20053;-60
2021/12/09 06:57:13;;;;;;;15.15;9.30;;;;;;;3.13;71.19;97117.94;10289091;28;20065;-60
2021/12/09 07:02:12;;;;;;;11.43;6.30;;;;;;;3.21;68.01;97111.25;10285000;28;20029;-60
2021/12/09 07:07:11;;;;;;;8.75;4.50;;;;;;;3.05;67.35;97091.31;10283046;28;20057;-60
2021/12/09 07:12:10;;;;;;;8.85;5.13;;;;;;;3.04;68.16;97104.09;10284186;28;20033;-60
2021/12/09 07:17:10;;;;;;;9.43;5.68;;;;;;;2.97;67.58;97101.41;10284905;28;20160;-60
2021/12/09 07:22:09;;;;;;;9.05;5.18;;;;;;;2.78;66.83;97048.09;10260084;28;20062;-60
2021/12/09 07:27:08;;;;;;;10.10;6.47;;;;;;;3.29;67.10;97111.38;10249215;28;20064;-60
2021/12/09 07:32:07;;;;;;;9.80;5.70;;;;;;;3.35;65.87;97114.03;10250997;28;20033;-60
2021/12/09 07:37:06;;;;;;;11.30;6.97;;;;;;;3.50;66.12;97092.91;10253630;28;20069;-60
2021/12/09 07:42:05;;;;;;;10.25;6.90;;;;;;;3.70;66.92;97085.53;10265026;28;20120;-59
2021/12/09 07:47:05;;;;;;;11.82;6.93;;;;;;;3.88;66.93;97087.50;10275066;28;20160;-60
2021/12/09 07:52:04;;;;;;;10.68;5.32;;;;;;;4.08;63.46;97098.06;10279055;28;20074;-60
2021/12/09 07:57:03;;;;;;;16.77;9.02;;;;;;;4.28;63.32;97090.63;10290181;28;20084;-59
2021/12/09 08:02:03;;;;;;;12.23;9.43;;;;;;;4.45;64.81;97095.97;10288684;28;20061;-59
2021/12/09 08:07:02;;;;;;;12.55;8.30;;;;;;;4.54;63.73;97098.66;10288505;28;20406;-59
2021/12/09 08:12:01;;;;;;;;;;;;;;;4.58;63.69;97095.28;10289587;28;20460;-59
2021/12/09 08:17:13;;;;;;;7.53;4.63;;;;;;;4.62;61.60;97060.19;10265718;28;19976;-59
2021/12/09 08:22:14;;;;;;;8.95;4.90;;;;;;;4.89;61.18;97101.63;10278990;28;20069;-59
2021/12/09 08:27:13;;;;;;;10.70;5.93;;;;;;;4.98;62.57;97105.19;10289220;28;20065;-59
2021/12/09 08:32:12;;;;;;;11.73;7.65;;;;;;;4.76;63.34;97029.50;10296020;28;20117;-60
2021/12/09 08:37:12;;;;;;;14.18;6.90;;;;;;;5.09;61.41;97081.28;10295510;28;20065;-59
2021/12/09 08:42:13;;;;;;;16.80;11.23;;;;;;;5.19;63.42;97073.66;10293737;28;20061;-60
2021/12/09 08:47:12;;;;;;;11.32;6.80;;;;;;;5.24;64.59;97041.13;10294789;28;20118;-59
2021/12/09 08:52:12;;;;;;;8.95;4.95;;;;;;;5.58;60.16;97068.00;10272808;28;20520;-59
2021/12/09 08:57:12;;;;;;;11.50;7.32;;;;;;;5.72;59.54;97076.69;10255624;28;20084;-59
2021/12/09 09:02:11;;;;;;;10.18;6.22;;;;;;;5.89;59.32;97078.50;10254499;28;20112;-59
2021/12/09 09:07:10;;;;;;;8.93;5.07;;;;;;;6.00;59.39;97065.69;10262437;28;20062;-59
2021/12/09 09:12:11;;;;;;;7.38;4.68;;;;;;;5.97;59.05;97066.53;10255912;28;20034;-59
2021/12/09 09:17:10;;;;;;;8.85;4.95;;;;;;;5.97;58.65;97062.22;10253865;28;20058;-59
2021/12/09 09:22:09;;;;;;;8.30;4.43;;;;;;;6.22;59.22;97064.09;10252414;28;20120;-59
2021/12/09 09:27:08;;;;;;;8.65;4.93;;;;;;;6.27;59.64;97021.19;10292061;28;20042;-59
2021/12/09 09:32:10;;;;;;;9.07;6.57;;;;;;;6.60;58.77;97056.53;10280328;28;20058;-59
2021/12/09 09:37:10;;;;;;;8.27;5.50;;;;;;;6.60;56.82;97041.91;10291054;28;20499;-59
2021/12/09 09:47:08;;;;;;;;;;;;;;;6.82;58.81;97039.41;10274457;28;20076;-59
2021/12/09 09:52:09;;;;;;;7.50;4.90;;;;;;;7.03;57.22;97034.28;10292404;28;19917;-59
2021/12/09 09:57:09;;;;;;;9.82;5.50;;;;;;;7.35;57.79;97045.47;10291728;28;20061;-59
2021/12/09 10:02:12;;;;;;;8.52;5.47;;;;;;;7.41;56.53;97025.72;10291377;28;20088;-59
2021/12/09 10:07:19;;;;;;;7.53;5.10;;;;;;;7.54;55.60;97026.56;10281254;28;20121;-59
2021/12/09 10:12:19;;;;;;;9.90;5.18;;;;;;;7.71;56.12;97012.78;10280946;28;20065;-59
2021/12/09 10:17:24;;;;;;;7.93;5.00;;;;;;;7.99;56.56;97019.63;10290567;28;20069;-59
2021/12/09 10:22:28;;;;;;;7.18;4.78;;;;;;;8.16;54.51;97006.66;10291426;28;20065;-58
2021/12/09 10:27:33;;;;;;;8.60;5.05;;;;;;;8.34;54.55;96990.22;10291377;28;20061;-59
2021/12/09 10:32:34;;;;;;;10.25;6.60;;;;;;;8.22;54.74;96948.91;10289428;28;20475;-59
2021/12/09 10:37:34;;;;;;;10.38;6.95;;;;;;;8.34;54.00;96979.88;10290700;28;20073;-58
2021/12/09 10:42:39;;;;;;;10.32;7.50;;;;;;;8.14;55.40;96961.88;10290324;28;20448;-58
2021/12/09 10:48:11;;;;;;;16.55;10.98;;;;;;;8.13;56.89;96967.91;10289656;28;20076;-58
2021/12/09 10:58:25;;;;;;;10.73;6.80;;;;;;;8.08;56.80;96942.09;10310082;28;20485;-59
2021/12/09 11:03:35;;;;;;;9.05;6.00;;;;;;;8.11;56.78;96937.75;10275237;28;20121;-58
2021/12/09 11:08:41;;;;;;;12.57;7.97;;;;;;;8.02;58.41;96949.00;10284812;28;20069;-58
2021/12/09 11:13:45;;;;;;;10.27;5.65;;;;;;;8.09;58.24;96937.78;10277572;28;20061;-58
2021/12/09 11:18:45;;;;;;;12.13;7.35;;;;;;;8.27;57.57;96929.06;10285863;28;20073;-58
2021/12/09 11:23:58;;;;;;;9.52;5.53;;;;;;;8.23;56.69;96909.28;10288053;28;20549;-58
2021/12/09 11:29:05;;;;;;;10.73;6.57;;;;;;;8.40;58.24;96897.09;10289972;28;20070;-58
2021/12/09 11:34:12;;;;;;;10.35;6.35;;;;;;;8.99;57.45;96958.78;10288343;28;20511;-58
2021/12/09 11:39:26;;;;;;;10.50;7.32;;;;;;;9.02;55.67;96966.50;10288641;28;20057;-58
2021/12/09 11:44:25;;;;;;;17.45;12.18;;;;;;;9.15;57.11;96961.22;10287771;28;20070;-58
2021/12/09 11:49:25;;;;;;;16.75;10.00;;;;;;;9.30;57.11;96952.53;10286714;28;20065;-59
2021/12/09 11:54:25;;;;;;;11.32;7.38;;;;;;;9.41;55.27;96964.50;10287165;28;20088;-58
2021/12/09 12:06:44;;;;;;;9.25;6.53;;;;;;;9.36;53.77;96912.75;10296086;28;20061;-58
2021/12/09 12:15:43;;;;;;;11.35;6.32;;;;;;;9.16;54.98;96920.69;10295967;28;19951;-58
2021/12/09 12:21:13;;;;;;;9.82;5.57;;;;;;;9.35;54.45;96932.63;10295759;28;20073;-58
2021/12/09 12:26:38;;;;;;;8.37;5.67;;;;;;;9.38;54.36;96936.06;10295326;28;20076;-58
2021/12/09 12:32:28;;;;;;;9.95;6.82;;;;;;;9.42;54.38;96917.00;10295304;28;20292;-58
2021/12/09 12:43:13;;;;;;;12.98;7.50;;;;;;;9.36;54.15;96923.13;10295315;28;20072;-58
2021/12/09 12:48:34;;;;;;;9.93;6.20;;;;;;;9.40;55.45;96898.91;10298452;28;20065;-58
2021/12/09 12:53:40;;;;;;;11.27;7.70;;;;;;;9.55;53.70;96903.06;10299440;28;20557;-60
2021/12/09 12:59:20;;;;;;;9.95;6.25;;;;;;;9.59;55.33;96909.09;10313166;28;20072;-58
2021/12/09 13:09:48;;;;;;;;;;;;;;;9.48;54.92;96885.88;10293156;28;20550;-58
2021/12/09 13:15:09;;;;;;;11.50;6.25;;;;;;;9.39;55.31;96885.97;10292527;28;19953;-58
2021/12/09 13:20:30;;;;;;;8.45;6.03;;;;;;;9.26;55.55;96875.72;10294316;28;20491;-58
2021/12/09 13:25:33;;;;;;;10.63;6.90;;;;;;;9.23;54.64;96886.13;10293691;28;20072;-58
2021/12/09 13:46:10;;;;;;;10.70;6.88;;;;;;;8.98;56.44;96874.28;10286721;28;20061;-58
2021/12/09 13:56:42;;;;;;;11.82;6.68;;;;;;;8.69;56.22;96884.00;10292173;28;20515;-58
2021/12/09 14:01:41;;;;;;;11.52;7.55;;;;;;;8.52;58.18;96883.25;10291350;28;20120;-58
2021/12/09 14:06:53;;;;;;;11.48;7.43;;;;;;;7.93;58.44;96804.38;10291911;28;20087;-58
2021/12/09 14:11:52;;;;;;;11.48;7.50;;;;;;;7.93;59.39;96830.19;10291902;28;20068;-58
2021/12/09 14:21:54;;;;;;;10.32;6.35;;;;;;;7.95;59.59;96862.06;10291085;28;19963;-59
2021/12/09 14:26:59;;;;;;;12.57;7.57;;;;;;;7.75;59.30;96819.09;10290762;28;20089;-58
2021/12/09 14:32:03;;;;;;;13.23;8.93;;;;;;;7.60;59.69;96798.53;10287779;28;20084;-58
2021/12/09 14:37:03;;;;;;;13.25;8.63;;;;;;;7.77;59.61;96843.19;10287959;28;20065;-58
2021/12/09 14:42:09;;;;;;;15.88;9.93;;;;;;;7.77;59.99;96857.81;10288615;28;20125;-59
2021/12/09 14:47:12;;;;;;;10.95;7.82;;;;;;;7.35;59.99;96819.22;10284872;28;20061;-58
2021/12/09 14:52:11;;;;;;;11.32;7.20;;;;;;;7.59;60.05;96857.06;10291031;28;20069;-59
2021/12/09 14:57:10;;;;;;;12.48;9.35;;;;;;;7.55;61.00;96859.66;10289078;28;20065;-58
2021/12/09 15:02:33;;;;;;;13.02;9.35;;;;;;;7.43;60.62;96863.13;10290222;28;20484;-59
2021/12/09 15:12:33;;;;;;;13.50;8.68;;;;;;;7.37;61.61;96850.19;10289395;28;20025;-58
2021/12/09 15:17:34;;;;;;;14.48;9.30;;;;;;;7.32;61.78;96849.34;10285018;28;20124;-58
2021/12/09 15:22:54;;;;;;;14.80;9.88;;;;;;;7.35;62.08;96849.34;10288749;28;20103;-59
2021/12/09 15:28:13;;;;;;;22.05;13.90;;;;;;;7.22;61.70;96826.16;10287755;28;20073;-59
2021/12/09 15:33:16;;;;;;;19.57;12.20;;;;;;;7.22;61.84;96833.91;10287536;28;20528;-58
2021/12/09 15:38:21;;;;;;;16.05;9.55;;;;;;;7.17;62.14;96837.34;10290245;28;20065;-59
2021/12/09 15:43:23;;;;;;;11.85;7.18;;;;;;;7.13;62.24;96828.75;10288850;28;20065;-58
2021/12/09 15:48:26;;;;;;;11.30;7.28;;;;;;;7.16;62.11;96805.53;10286154;28;20065;-59
2021/12/09 15:53:27;;;;;;;10.98;6.70;;;;;;;7.22;62.82;96809.81;10288416;28;20082;-59
2021/12/09 15:58:26;;;;;;;14.70;8.35;;;;;;;7.00;62.32;96765.16;10286606;28;20065;-59
2021/12/09 16:03:26;;;;;;;31.35;19.65;;;;;;;7.12;62.12;96816.69;10276749;28;20041;-59
2021/12/09 16:08:24;;;;;;;;;;;;;;;6.72;63.93;96839.97;10286995;28;20417;-58
2021/12/09 16:13:24;;;;;;;55.72;38.10;;;;;;;6.42;66.14;96819.38;10267255;28;20711;-58
2021/12/09 16:18:28;;;;;;;65.30;45.30;;;;;;;5.96;66.78;96818.47;10247486;28;20065;-59
2021/12/09 16:23:27;;;;;;;96.30;60.72;;;;;;;5.70;68.58;96802.94;10278346;28;20065;-59
2021/12/09 16:28:28;;;;;;;62.83;39.60;;;;;;;5.26;69.33;96766.78;10288264;28;20057;-59
2021/12/09 16:33:29;;;;;;;27.40;18.00;;;;;;;5.17;69.54;96792.47;10289157;28;20062;-59
2021/12/09 16:38:32;;;;;;;23.50;15.75;;;;;;;5.15;69.97;96789.00;10288431;28;20467;-58
2021/12/09 16:43:32;;;;;;;29.23;18.55;;;;;;;5.18;70.19;96794.16;10291401;28;20053;-58
2021/12/09 16:48:32;;;;;;;33.33;22.83;;;;;;;5.20;70.35;96811.31;10295771;28;20057;-58
2021/12/09 16:53:43;;;;;;;42.05;27.70;;;;;;;5.21;70.82;96801.91;10291255;28;20082;-58
2021/12/09 16:58:48;;;;;;;59.97;39.38;;;;;;;5.03;71.70;96779.53;10294435;28;20061;-58
2021/12/09 17:03:47;;;;;;;68.55;45.53;;;;;;;5.03;71.33;96764.97;10294884;28;20483;-58
2021/12/09 17:08:46;;;;;;;58.83;39.78;;;;;;;5.05;71.71;96783.81;10294194;28;20495;-58
2021/12/09 17:13:45;;;;;;;62.67;43.75;;;;;;;4.81;71.81;96750.25;10294567;28;20037;-58
2021/12/09 17:18:44;;;;;;;;;;;;;;;4.96;72.35;96773.50;10294814;28;20102;-58
2021/12/09 17:23:43;;;;;;;96.13;64.93;;;;;;;5.00;71.81;96798.38;10293937;28;20000;-58
2021/12/09 17:28:43;;;;;;;67.95;48.65;;;;;;;4.83;72.24;96780.25;10293243;28;20041;-58
2021/12/09 17:33:41;;;;;;;;;;;;;;;4.96;72.06;96783.78;10294621;28;20364;-59
2021/12/09 17:38:40;;;;;;;63.08;41.78;;;;;;;4.98;72.15;96782.06;10293636;28;19919;-58
2021/12/09 17:43:40;;;;;;;76.40;52.83;;;;;;;4.86;72.24;96775.13;10293684;28;20488;-59
2021/12/09 17:48:39;;;;;;;63.90;39.35;;;;;;;4.76;72.38;96769.91;10293146;28;20076;-59
2021/12/09 17:53:38;;;;;;;64.57;42.13;;;;;;;4.98;72.73;96794.94;10291558;28;20526;-58
2021/12/09 17:58:37;;;;;;;51.20;33.78;;;;;;;4.92;72.73;96782.00;10292715;28;20431;-58
2021/12/09 18:03:37;;;;;;;55.33;37.15;;;;;;;4.94;72.46;96772.63;10292406;28;20040;-59
2021/12/09 18:08:37;;;;;;;52.45;36.40;;;;;;;4.86;72.73;96761.41;10291831;28;20068;-58
2021/12/09 18:13:37;;;;;;;64.32;44.47;;;;;;;4.35;73.03;96686.59;10291657;28;20053;-58
2021/12/09 18:18:36;;;;;;;;;;;;;;;4.77;72.95;96781.94;10292855;28;20058;-59
2021/12/09 18:23:35;;;;;;;95.35;54.80;;;;;;;4.82;73.09;96785.38;10291723;28;19967;-58
2021/12/09 18:28:34;;;;;;;;;;;;;;;4.85;72.62;96791.41;10292088;28;20538;-58
2021/12/09 18:33:34;;;;;;;49.15;31.75;;;;;;;4.72;73.00;96781.91;10291743;28;20399;-58
2021/12/09 18:38:33;;;;;;;54.17;36.88;;;;;;;4.84;73.10;96763.97;10286428;28;20056;-58
2021/12/09 18:43:32;;;;;;;45.10;29.83;;;;;;;4.92;73.12;96793.16;10290547;28;20038;-58
2021/12/09 18:48:35;;;;;;;44.58;30.65;;;;;;;4.97;72.92;96793.22;10290298;28;20550;-58
2021/12/09 18:53:35;;;;;;;49.42;29.50;;;;;;;4.86;73.38;96785.41;10289619;28;20080;-58
2021/12/09 18:58:34;;;;;;;65.07;37.63;;;;;;;4.78;73.38;96786.22;10289737;28;20584;-59
2021/12/09 19:03:35;;;;;;;43.72;27.83;;;;;;;4.71;73.58;96778.47;10290368;28;20061;-58
2021/12/09 19:08:34;;;;;;;41.78;26.67;;;;;;;4.59;73.98;96798.94;10289704;28;20065;-58
2021/12/09 19:13:37;;;;;;;40.15;27.13;;;;;;;4.49;73.75;96771.47;10291034;28;20053;-58
2021/12/09 19:18:37;;;;;;;39.50;25.25;;;;;;;4.27;73.98;96767.88;10289730;28;20069;-58
2021/12/09 19:23:36;;;;;;;37.15;25.85;;;;;;;4.39;74.15;96795.38;10284558;28;20133;-58
2021/12/09 19:28:38;;;;;;;49.58;33.08;;;;;;;4.33;74.54;96785.03;10290203;28;20072;-58
2021/12/09 19:33:39;;;;;;;54.35;37.45;;;;;;;4.16;74.84;96798.59;10289059;28;20073;-58
2021/12/09 19:38:39;;;;;;;89.18;54.17;;;;;;;4.10;75.22;96800.25;10288698;28;20061;-58
2021/12/09 19:43:38;;;;;;;92.03;57.20;;;;;;;3.95;75.80;96801.84;10289706;28;20065;-58
2021/12/09 19:48:38;;;;;;;113.93;68.57;;;;;;;3.84;76.40;96793.16;10289082;28;20130;-58
2021/12/09 19:53:38;;;;;;;106.85;69.18;;;;;;;3.81;76.36;96793.13;10288616;28;20120;-59
2021/12/09 19:58:37;;;;;;;95.88;59.13;;;;;;;3.79;75.88;96803.38;10285109;28;20066;-58
2021/12/09 20:03:38;;;;;;;84.45;53.03;;;;;;;3.64;76.96;96783.56;10288952;28;20061;-58
2021/12/09 20:08:40;;;;;;;86.30;53.92;;;;;;;3.58;77.24;96813.41;10288713;28;20077;-58
2021/12/09 20:13:42;;;;;;;78.78;50.05;;;;;;;3.48;77.23;96775.69;10288551;28;20146;-58
2021/12/09 20:18:41;;;;;;;95.20;59.10;;;;;;;3.38;77.67;96792.69;10292621;28;20065;-58
2021/12/09 20:23:40;;;;;;;68.88;45.63;;;;;;;3.33;77.70;96784.94;10296102;28;20073;-58
2021/12/09 20:28:39;;;;;;;95.10;57.47;;;;;;;3.38;77.85;96767.03;10291502;28;20041;-58
2021/12/09 21:22:36;;;;;;;118.30;72.57;;;;;;;2.61;80.30;96673.88;10245821;28;20138;-58
2021/12/09 21:27:35;;;;;;;;;;;;;;;2.91;81.30;96728.88;10236571;28;20065;-58
2021/12/09 21:32:34;;;;;;;129.90;81.72;;;;;;;2.81;80.86;96709.97;10251801;28;19913;-58
2021/12/09 21:37:33;;;;;;;111.47;74.45;;;;;;;2.42;80.86;96654.84;10253560;28;20061;-58
2021/12/09 21:57:42;;;;;;;58.15;38.78;;;;;;;2.98;82.19;96748.59;10492309;27;20442;-57
2021/12/09 22:02:42;;;;;;;42.05;26.17;;;;;;;2.92;81.91;96722.91;10476242;28;20107;-57
2021/12/09 22:07:42;;;;;;;48.15;31.20;;;;;;;3.11;81.40;96741.94;10448671;28;20110;-57
2021/12/09 22:12:42;;;;;;;58.95;34.50;;;;;;;3.13;81.38;96719.75;10492088;28;20486;-57
2021/12/09 22:17:43;;;;;;;66.30;39.92;;;;;;;3.07;81.13;96714.53;10491982;28;20075;-57
2021/12/09 22:22:42;;;;;;;52.25;32.38;;;;;;;3.02;81.89;96735.84;10491598;28;20059;-58
2021/12/09 22:27:41;;;;;;;56.25;34.67;;;;;;;3.09;81.33;96736.78;10491611;28;20063;-58
2021/12/09 22:32:40;;;;;;;;;;;;;;;3.18;81.24;96743.72;10491828;28;20067;-58
2021/12/09 22:37:39;;;;;;;51.53;32.60;;;;;;;3.25;80.88;96729.28;10491533;28;19900;-58
2021/12/09 22:42:39;;;;;;;40.47;26.15;;;;;;;3.12;80.73;96707.75;10491293;28;20059;-58
2021/12/09 22:47:40;;;;;;;62.08;34.00;;;;;;;3.07;81.36;96709.41;10468507;28;20060;-58
2021/12/09 22:52:40;;;;;;;48.15;27.35;;;;;;;3.04;81.36;96732.47;10449037;28;20067;-58
2021/12/09 22:57:39;;;;;;;43.75;27.25;;;;;;;3.06;81.55;96725.66;10426367;28;20487;-58
2021/12/09 23:02:38;;;;;;;;;;;;;;;3.01;81.95;96728.16;10421758;28;20100;-58
2021/12/09 23:07:37;;;;;;;60.15;35.25;;;;;;;3.01;81.40;96713.63;10396786;28;19917;-58
2021/12/09 23:12:39;;;;;;;34.17;18.55;;;;;;;2.99;81.28;96710.19;10378639;28;20036;-58
2021/12/09 23:17:42;;;;;;;72.30;38.53;;;;;;;3.13;81.85;96728.28;10378521;28;20072;-58
2021/12/09 23:22:41;;;;;;;60.53;36.22;;;;;;;3.20;81.19;96750.59;10375430;28;20053;-58
2021/12/09 23:27:40;;;;;;;95.75;47.30;;;;;;;2.94;80.70;96709.28;10376117;28;20071;-58
2021/12/09 23:32:39;;;;;;;33.42;18.73;;;;;;;2.87;80.67;96734.81;10376404;28;20075;-57
2021/12/09 23:37:38;;;;;;;44.42;25.67;;;;;;;2.62;80.78;96724.22;10378265;28;20037;-58
2021/12/09 23:42:37;;;;;;;32.20;18.23;;;;;;;2.47;80.40;96714.66;10378654;28;20061;-58
2021/12/09 23:47:38;;;;;;;31.45;18.80;;;;;;;2.40;80.62;96740.16;10378838;28;20068;-57
2021/12/09 23:52:42;;;;;;;31.63;20.13;;;;;;;2.25;81.10;96740.75;10378497;28;20585;-58
2021/12/09 23:57:43;;;;;;;36.00;20.67;;;;;;;2.10;81.62;96726.91;10378452;28;20076;-58
